Time;durP1;ratioP1;P1;durP2;ratioP2;P2;SDS_P1;SDS_P2;PMS_P1;PMS_P2;Temp;Humidity;BMP_temperature;BMP_pressure;BME280_temperature;BME280_humidity;BME280_pressure;Samples;Min_cycle;Max_cycle;Signal;HPM_P1;HPM_P2
2023/04/29 00:06:32;;;;;;;1999.90;999.90;;;13.60;99.90;;;;;;6752103;88;20173;-82
2023/04/29 00:16:32;;;;;;;1999.90;999.90;;;13.50;99.90;;;;;;6732148;88;20149;-80
2023/04/29 00:26:33;;;;;;;1999.90;999.90;;;13.30;99.90;;;;;;6732297;88;20531;-78
2023/04/29 00:36:34;;;;;;;1999.90;999.90;;;13.30;99.90;;;;;;6732106;88;20165;-81
2023/04/29 00:46:35;;;;;;;1999.90;999.90;;;13.20;99.90;;;;;;6747109;88;20177;-79
2023/04/29 00:56:38;;;;;;;1999.90;999.90;;;13.10;99.90;;;;;;6751233;88;20935;-81
2023/04/29 01:06:48;;;;;;;1999.90;999.90;;;13.00;99.90;;;;;;6751303;88;20158;-81
2023/04/29 01:16:55;;;;;;;1999.90;999.90;;;12.80;99.90;;;;;;6731944;88;20282;-80
2023/04/29 01:27:04;;;;;;;1999.90;999.90;;;12.80;99.90;;;;;;6731571;88;20854;-80
2023/04/29 01:37:16;;;;;;;1999.90;999.90;;;12.70;99.90;;;;;;6731274;88;21022;-80
2023/04/29 01:47:17;;;;;;;1999.90;999.90;;;12.60;99.90;;;;;;6744444;88;20863;-80
2023/04/29 01:57:18;;;;;;;1999.90;999.90;;;12.50;99.90;;;;;;6713754;88;20510;-79
2023/04/29 02:07:18;;;;;;;1999.90;999.90;;;12.40;99.90;;;;;;6663180;89;20263;-81
2023/04/29 02:17:19;;;;;;;1999.90;999.90;;;12.40;99.90;;;;;;6683394;88;20213;-82
2023/04/29 02:27:19;;;;;;;1999.90;999.90;;;12.30;99.90;;;;;;6742757;88;20185;-81
2023/04/29 02:37:20;;;;;;;1999.90;999.90;;;12.20;99.90;;;;;;6749999;88;20936;-80
2023/04/29 02:47:21;;;;;;;1999.90;999.90;;;12.10;99.90;;;;;;6749872;88;20189;-80
2023/04/29 02:57:21;;;;;;;1999.90;999.90;;;11.90;99.90;;;;;;6749780;88;20263;-79
2023/04/29 03:07:25;;;;;;;1999.90;999.90;;;11.90;99.90;;;;;;6749774;88;20167;-83
2023/04/29 03:17:26;;;;;;;1999.90;999.90;;;11.90;99.90;;;;;;6752324;88;20150;-81
2023/04/29 03:27:26;;;;;;;1999.90;999.90;;;11.80;99.90;;;;;;6751260;88;20169;-82
2023/04/29 03:37:27;;;;;;;1999.90;999.90;;;11.80;99.90;;;;;;6750772;88;20169;-83
2023/04/29 03:47:27;;;;;;;1999.90;999.90;;;11.70;99.90;;;;;;6730968;88;20244;-85
2023/04/29 03:57:28;;;;;;;1999.90;999.90;;;11.70;99.90;;;;;;6738476;88;21191;-86
2023/04/29 04:07:28;;;;;;;1999.90;999.90;;;11.60;99.90;;;;;;6749527;88;20207;-83
2023/04/29 04:17:29;;;;;;;1999.90;999.90;;;11.50;99.90;;;;;;6749569;88;20260;-84
2023/04/29 04:27:29;;;;;;;1999.90;999.90;;;11.30;99.90;;;;;;6746496;88;20170;-84
2023/04/29 04:37:30;;;;;;;1999.90;999.90;;;11.00;99.90;;;;;;6749249;88;20197;-84
2023/04/29 04:47:31;;;;;;;1999.90;999.90;;;10.80;99.90;;;;;;6748238;88;20186;-81
2023/04/29 04:57:31;;;;;;;1999.90;999.90;;;10.60;99.90;;;;;;6749310;88;20198;-86
2023/04/29 05:07:34;;;;;;;1999.90;999.90;;;10.40;99.90;;;;;;6749303;88;20193;-84
2023/04/29 05:17:35;;;;;;;1999.90;999.90;;;10.30;99.90;;;;;;6742732;88;20192;-83
2023/04/29 05:27:35;;;;;;;1999.90;999.90;;;10.40;99.90;;;;;;6742608;88;20190;-82
2023/04/29 05:37:36;;;;;;;1999.90;999.90;;;10.30;99.90;;;;;;6747314;88;20770;-83
2023/04/29 05:47:36;;;;;;;1999.90;999.90;;;10.20;99.90;;;;;;6737910;88;20698;-81
2023/04/29 05:57:37;;;;;;;1999.90;999.90;;;10.00;99.90;;;;;;6738842;88;20762;-83
2023/04/29 06:07:38;;;;;;;1999.90;999.90;;;10.00;99.90;;;;;;6727707;88;20197;-81
2023/04/29 06:17:39;;;;;;;1999.90;999.90;;;9.90;99.90;;;;;;6732065;88;20609;-80
2023/04/29 06:47:46;;;;;;;1999.90;999.90;;;10.00;99.90;;;;;;6738711;88;20251;-79
2023/04/29 06:57:46;;;;;;;1999.90;999.90;;;10.10;99.90;;;;;;6695191;89;20210;-79
2023/04/29 07:07:47;;;;;;;1999.90;999.90;;;10.10;99.90;;;;;;6702070;88;20958;-85
2023/04/29 07:28:49;;;;;;;1999.90;999.90;;;10.30;99.90;;;;;;6643367;88;20244;-79
2023/04/29 07:38:50;;;;;;;1999.90;999.90;;;10.50;99.90;;;;;;6641115;88;20211;-78
2023/04/29 07:48:51;;;;;;;1999.90;999.90;;;10.60;99.90;;;;;;6641870;89;20204;-79
2023/04/29 07:58:52;;;;;;;1999.90;999.90;;;10.70;99.90;;;;;;6635493;89;20634;-79
2023/04/29 08:08:52;;;;;;;1999.90;999.90;;;10.70;99.90;;;;;;6637753;89;20189;-81
2023/04/29 08:18:53;;;;;;;1999.90;999.90;;;10.70;99.90;;;;;;6641324;89;20294;-81
2023/04/29 08:28:54;;;;;;;1999.90;999.90;;;10.70;99.90;;;;;;6642816;89;20561;-80
2023/04/29 08:38:55;;;;;;;1999.90;999.90;;;10.80;99.90;;;;;;6641411;89;20214;-81
2023/04/29 08:48:56;;;;;;;1999.90;999.90;;;11.10;99.90;;;;;;6647208;89;20192;-80
2023/04/29 08:58:58;;;;;;;1999.90;999.90;;;11.30;99.90;;;;;;6642150;89;20238;-80
2023/04/29 09:09:00;;;;;;;1999.90;999.90;;;11.40;99.90;;;;;;6639635;89;20208;-80
2023/04/29 09:19:01;;;;;;;1999.90;999.90;;;11.40;99.90;;;;;;6640077;89;20251;-80
2023/04/29 09:29:22;;;;;;;1999.90;999.90;;;11.40;99.90;;;;;;6662837;78;20229;-80
2023/04/29 09:39:24;;;;;;;1999.90;999.90;;;11.30;99.90;;;;;;6699442;88;20182;-79
2023/04/29 09:49:29;;;;;;;1999.90;999.90;;;11.50;99.90;;;;;;6690705;88;20250;-79
2023/04/29 09:59:32;;;;;;;1999.90;999.90;;;11.90;99.90;;;;;;6676951;89;20535;-79
2023/04/29 10:09:33;;;;;;;1999.90;999.90;;;12.00;99.90;;;;;;6702294;88;20274;-79
2023/04/29 10:19:41;;;;;;;1999.90;999.90;;;12.50;99.90;;;;;;6715824;88;20253;-79
2023/04/29 10:29:43;;;;;;;1999.90;999.90;;;12.70;99.90;;;;;;6696093;88;20382;-79
2023/04/29 10:39:56;;;;;;;1999.90;999.90;;;12.50;99.90;;;;;;6634407;88;20229;-79
2023/04/29 10:50:04;;;;;;;1999.90;999.90;;;12.40;99.90;;;;;;6646577;89;20256;-79
2023/04/29 11:00:05;;;;;;;1999.90;999.90;;;12.60;99.90;;;;;;6631685;89;20217;-81
2023/04/29 11:10:06;;;;;;;1999.90;999.90;;;12.60;99.90;;;;;;6654372;88;20205;-79
2023/04/29 11:20:13;;;;;;;1999.90;999.90;;;12.60;99.90;;;;;;6650288;88;20412;-79
2023/04/29 11:30:15;;;;;;;1999.90;999.90;;;12.50;99.90;;;;;;6675691;88;20225;-80
2023/04/29 11:40:16;;;;;;;1999.90;999.90;;;12.40;99.90;;;;;;6644983;88;20725;-81
2023/04/29 11:50:18;;;;;;;1999.90;999.90;;;12.40;99.90;;;;;;6647381;89;20802;-79
2023/04/29 12:00:19;;;;;;;1999.90;999.90;;;12.30;99.90;;;;;;6642102;88;20565;-79
2023/04/29 12:10:20;;;;;;;1999.90;999.90;;;12.30;99.90;;;;;;6651342;88;20214;-80
2023/04/29 12:20:21;;;;;;;1999.90;999.90;;;12.30;99.90;;;;;;6640793;88;20301;-80
2023/04/29 12:30:21;;;;;;;1999.90;999.90;;;12.20;99.90;;;;;;6672726;88;20193;-80
2023/04/29 12:40:23;;;;;;;1999.90;999.90;;;12.20;99.90;;;;;;6651015;88;20576;-79
2023/04/29 12:50:32;;;;;;;1999.90;999.90;;;12.20;99.90;;;;;;6645960;88;20210;-78
2023/04/29 13:00:33;;;;;;;1999.90;999.90;;;12.40;99.90;;;;;;6625014;88;20220;-77
2023/04/29 13:10:34;;;;;;;1999.90;999.90;;;12.30;99.90;;;;;;6640118;88;20305;-80
2023/04/29 13:20:35;;;;;;;1999.90;999.90;;;12.30;99.90;;;;;;6641853;88;20700;-79
2023/04/29 13:30:36;;;;;;;1999.90;999.90;;;12.40;99.90;;;;;;6628750;88;20205;-79
2023/04/29 13:40:36;;;;;;;1999.90;999.90;;;12.50;99.90;;;;;;6659508;88;20197;-78
2023/04/29 13:50:39;;;;;;;1999.90;999.90;;;12.90;99.90;;;;;;6637723;88;20213;-78
2023/04/29 14:00:40;;;;;;;1999.90;999.90;;;13.10;99.90;;;;;;6641556;88;20239;-81
2023/04/29 14:10:41;;;;;;;1999.90;999.90;;;13.30;99.90;;;;;;6635873;88;20253;-83
2023/04/29 14:20:42;;;;;;;1999.90;999.90;;;13.20;99.90;;;;;;6645921;88;20185;-83
2023/04/29 14:30:42;;;;;;;1999.90;999.90;;;13.50;99.90;;;;;;6625309;89;20185;-81
2023/04/29 14:40:43;;;;;;;1999.90;999.90;;;13.80;99.90;;;;;;6628849;89;20205;-80
2023/04/29 14:50:43;;;;;;;1999.90;999.90;;;14.00;99.90;;;;;;6652318;89;20201;-82
2023/04/29 15:00:44;;;;;;;1999.90;999.90;;;14.10;99.90;;;;;;6653066;88;20219;-82
2023/04/29 15:10:46;;;;;;;1999.90;999.90;;;14.00;99.90;;;;;;6641715;88;20236;-83
2023/04/29 15:20:46;;;;;;;1999.90;999.90;;;14.30;99.90;;;;;;6651072;88;20652;-80
2023/04/29 15:31:28;;;;;;;1999.90;999.90;;;14.50;99.90;;;;;;6633082;77;20208;-80
2023/04/29 15:41:29;;;;;;;1999.90;999.90;;;14.40;99.90;;;;;;6641148;88;20237;-81
2023/04/29 15:51:29;;;;;;;1999.90;999.90;;;14.20;99.90;;;;;;6626463;89;20250;-80
2023/04/29 16:01:30;;;;;;;1999.90;999.90;;;14.00;99.90;;;;;;6642516;88;20233;-80
2023/04/29 16:11:31;;;;;;;1999.90;999.90;;;13.80;99.90;;;;;;6655839;88;20150;-81
2023/04/29 16:21:33;;;;;;;1999.90;999.90;;;13.80;99.90;;;;;;6627039;89;20247;-79
2023/04/29 16:31:33;;;;;;;1999.90;999.90;;;13.70;99.90;;;;;;6623800;89;20200;-81
2023/04/29 16:41:34;;;;;;;1999.90;999.90;;;13.70;99.90;;;;;;6659580;88;20593;-80
2023/04/29 16:51:35;;;;;;;1999.90;999.90;;;13.70;99.90;;;;;;6630914;88;20211;-80
2023/04/29 17:01:35;;;;;;;1999.90;999.90;;;13.70;99.90;;;;;;6636086;88;20196;-83
2023/04/29 17:11:36;;;;;;;1999.90;999.90;;;13.80;99.90;;;;;;6635842;88;20177;-84
2023/04/29 17:21:36;;;;;;;1999.90;999.90;;;13.80;99.90;;;;;;6649002;88;20205;-78
2023/04/29 17:31:53;;;;;;;1999.90;999.90;;;13.80;99.90;;;;;;6621648;89;20211;-80
2023/04/29 17:41:53;;;;;;;1999.90;999.90;;;13.70;99.90;;;;;;6612950;89;20203;-80
2023/04/29 17:51:54;;;;;;;1999.90;999.90;;;13.60;99.90;;;;;;6619305;89;20193;-80
2023/04/29 18:01:55;;;;;;;1999.90;999.90;;;13.50;99.90;;;;;;6619218;89;20234;-79
2023/04/29 18:11:55;;;;;;;1999.90;999.90;;;13.40;99.90;;;;;;6621788;89;20201;-78
2023/04/29 18:21:57;;;;;;;1999.90;999.90;;;13.30;99.90;;;;;;6621528;89;20193;-79
2023/04/29 18:31:58;;;;;;;1999.90;999.90;;;13.20;99.90;;;;;;6635482;88;21041;-78
2023/04/29 18:41:59;;;;;;;1999.90;999.90;;;13.10;99.90;;;;;;6621083;89;20676;-79
2023/04/29 18:52:00;;;;;;;1999.90;999.90;;;13.00;99.90;;;;;;6624276;89;20347;-81
2023/04/29 19:02:00;;;;;;;1999.90;999.90;;;12.90;99.90;;;;;;6608109;90;20224;-80
2023/04/29 19:12:04;;;;;;;1999.90;999.90;;;12.60;99.90;;;;;;6606028;90;20215;-82
2023/04/29 19:22:06;;;;;;;1999.90;999.90;;;12.40;99.90;;;;;;6628312;89;20237;-81
2023/04/29 19:32:06;;;;;;;1999.90;999.90;;;12.10;99.90;;;;;;6614320;89;20197;-81
2023/04/29 19:42:07;;;;;;;1999.90;999.90;;;11.90;99.90;;;;;;6608145;90;20222;-80
2023/04/29 19:52:08;;;;;;;1999.90;999.90;;;11.80;99.90;;;;;;6606686;89;20334;-79
2023/04/29 20:02:08;;;;;;;1999.90;999.90;;;11.60;99.90;;;;;;6607916;89;20198;-80
2023/04/29 20:12:09;;;;;;;1999.90;999.90;;;11.60;99.90;;;;;;6613655;89;20222;-79
2023/04/29 20:22:09;;;;;;;1999.90;999.90;;;11.50;99.90;;;;;;6613121;89;20289;-79
2023/04/29 20:32:10;;;;;;;1999.90;999.90;;;11.40;99.90;;;;;;6607848;89;20228;-79
2023/04/29 20:42:10;;;;;;;1999.90;999.90;;;11.20;99.90;;;;;;6607900;90;20190;-80
2023/04/29 20:52:11;;;;;;;1999.90;999.90;;;11.00;99.90;;;;;;6607974;89;20182;-80
2023/04/29 21:02:12;;;;;;;1999.90;999.90;;;11.10;99.90;;;;;;6614768;89;20550;-80
2023/04/29 21:12:13;;;;;;;1999.90;999.90;;;10.90;99.90;;;;;;6607770;89;20557;-80
2023/04/29 21:22:14;;;;;;;1999.90;999.90;;;10.80;99.90;;;;;;6607959;90;20235;-80
2023/04/29 21:32:20;;;;;;;1999.90;999.90;;;10.70;99.90;;;;;;6608014;89;20297;-79
2023/04/29 21:42:24;;;;;;;;;;;10.70;99.90;;;;;;6605611;89;20198;-79
2023/04/29 21:52:24;;;;;;;1999.90;999.90;;;10.70;99.90;;;;;;6604920;89;20076;-80
2023/04/29 22:02:26;;;;;;;1999.90;999.90;;;10.50;99.90;;;;;;6604786;89;20261;-79
2023/04/29 22:12:27;;;;;;;1999.90;999.90;;;10.50;99.90;;;;;;6604406;90;20205;-78
2023/04/29 22:22:27;;;;;;;1999.90;999.90;;;10.40;99.90;;;;;;6605555;89;20207;-79
2023/04/29 22:32:28;;;;;;;1999.90;999.90;;;10.50;99.90;;;;;;6605373;89;20216;-80
2023/04/29 22:42:28;;;;;;;1999.90;999.90;;;10.60;99.90;;;;;;6606840;89;20194;-79
2023/04/29 22:52:31;;;;;;;1999.90;999.90;;;10.60;99.90;;;;;;6623771;89;20214;-79
2023/04/29 23:02:32;;;;;;;1999.90;999.90;;;10.60;99.90;;;;;;6606172;89;20634;-79
2023/04/29 23:12:32;;;;;;;1999.90;999.90;;;10.60;99.90;;;;;;6609201;89;20183;-79
2023/04/29 23:22:32;;;;;;;1999.90;999.90;;;10.50;99.90;;;;;;6613554;89;20261;-79
2023/04/29 23:32:33;;;;;;;1999.90;999.90;;;10.40;99.90;;;;;;6623202;89;20625;-80
2023/04/29 23:42:34;;;;;;;1999.90;999.90;;;10.50;99.90;;;;;;6624087;89;20299;-80
2023/04/29 23:52:34;;;;;;;1999.90;999.90;;;10.30;99.90;;;;;;6622719;89;20269;-80
